createdAt,value
2019-02-08T00:00:44.324Z,3.47
2019-02-08T00:01:44.305Z,3.58
2019-02-08T00:02:44.278Z,3.65
2019-02-08T00:03:44.266Z,3.65
2019-02-08T00:04:44.414Z,3.63
2019-02-08T00:05:44.252Z,3.62
2019-02-08T00:06:44.260Z,3.50
2019-02-08T00:07:44.241Z,3.45
2019-02-08T00:08:44.217Z,3.47
2019-02-08T00:09:44.286Z,3.53
2019-02-08T00:10:44.388Z,3.53
2019-02-08T00:11:44.183Z,3.47
2019-02-08T00:12:44.217Z,3.42
2019-02-08T00:13:44.168Z,3.56
2019-02-08T00:14:44.161Z,3.50
2019-02-08T00:15:44.149Z,3.53
2019-02-08T00:16:44.309Z,3.45
2019-02-08T00:17:44.154Z,3.48
2019-02-08T00:18:44.119Z,3.47
2019-02-08T00:19:44.133Z,3.50
2019-02-08T00:20:44.112Z,3.45
2019-02-08T00:21:44.083Z,3.51
2019-02-08T00:22:44.250Z,3.51
2019-02-08T00:23:44.061Z,3.59
2019-02-08T00:24:44.066Z,3.55
2019-02-08T00:25:44.054Z,3.48
2019-02-08T00:26:44.099Z,3.53
2019-02-08T00:27:44.022Z,3.47
2019-02-08T00:28:44.301Z,3.51
2019-02-08T00:29:44.044Z,3.53
2019-02-08T00:30:44.297Z,3.56
2019-02-08T00:31:43.985Z,3.51
2019-02-08T00:32:43.962Z,3.50
2019-02-08T00:33:43.955Z,3.55
2019-02-08T00:34:43.955Z,3.51
2019-02-08T00:35:43.938Z,3.53
2019-02-08T00:36:44.186Z,3.50
2019-02-08T00:37:43.910Z,3.50
2019-02-08T00:38:45.564Z,3.48
2019-02-08T00:39:43.892Z,3.53
2019-02-08T00:40:43.887Z,3.45
2019-02-08T00:41:43.861Z,3.48
2019-02-08T00:42:44.133Z,3.40
2019-02-08T00:43:44.174Z,3.42
2019-02-08T00:44:43.835Z,3.42
2019-02-08T00:45:43.839Z,3.40
2019-02-08T00:46:43.841Z,3.45
2019-02-08T00:47:43.808Z,3.44
2019-02-08T00:48:44.059Z,3.44
2019-02-08T00:49:43.798Z,3.45
2019-02-08T00:50:43.771Z,3.51
2019-02-08T00:51:43.756Z,3.41
2019-02-08T00:52:43.762Z,3.47
2019-02-08T00:53:43.775Z,3.40
2019-02-08T00:54:43.870Z,3.41
2019-02-08T00:55:43.716Z,3.37
2019-02-08T00:56:43.720Z,3.36
2019-02-08T00:57:43.714Z,3.34
2019-02-08T00:58:43.970Z,3.34
2019-02-08T00:59:44.223Z,3.26
2019-02-08T01:00:43.933Z,3.34
2019-02-08T01:01:43.682Z,3.31
2019-02-08T01:02:43.656Z,3.37
2019-02-08T01:03:43.626Z,3.36
2019-02-08T01:04:43.610Z,3.41
2019-02-08T01:05:43.788Z,3.32
2019-02-08T01:06:44.403Z,3.32
2019-02-08T01:07:43.746Z,3.32
2019-02-08T01:08:46.025Z,3.29
2019-02-08T01:09:43.584Z,3.31
2019-02-08T01:10:43.558Z,3.18
2019-02-08T01:11:43.565Z,3.29
2019-02-08T01:12:43.689Z,3.32
2019-02-08T01:13:43.525Z,3.22
2019-02-08T01:14:43.520Z,3.22
2019-02-08T01:15:43.559Z,3.28
2019-02-08T01:16:43.512Z,3.21
2019-02-08T01:17:43.606Z,3.19
2019-02-08T01:18:43.622Z,3.21
2019-02-08T01:19:43.773Z,3.21
2019-02-08T01:20:43.464Z,3.11
2019-02-08T01:21:43.452Z,3.21
2019-02-08T01:22:43.440Z,3.19
2019-02-08T01:23:43.445Z,3.13
2019-02-08T01:24:43.406Z,3.07
2019-02-08T01:25:43.659Z,3.04
2019-02-08T01:26:43.392Z,3.03
2019-02-08T01:27:43.373Z,2.95
2019-02-08T01:28:43.428Z,2.98
2019-02-08T01:29:43.376Z,3.10
2019-02-08T01:30:43.603Z,3.10
2019-02-08T01:31:43.364Z,3.04
2019-02-08T01:32:43.389Z,3.04
2019-02-08T01:33:43.320Z,3.03
2019-02-08T01:34:43.302Z,2.98
2019-02-08T01:35:43.307Z,3.03
2019-02-08T01:36:43.726Z,2.98
2019-02-08T01:37:43.267Z,3.07
2019-02-08T01:38:43.263Z,3.05
2019-02-08T01:39:43.280Z,3.05
2019-02-08T01:40:43.259Z,3.01
2019-02-08T01:41:43.225Z,3.01
2019-02-08T01:42:43.333Z,3.01
2019-02-08T01:43:43.251Z,2.98
2019-02-08T01:44:43.201Z,3.03
2019-02-08T01:45:43.245Z,3.03
2019-02-08T01:46:43.208Z,3.03
2019-02-08T01:47:43.291Z,2.89
2019-02-08T01:48:43.318Z,2.98
2019-02-08T01:49:45.431Z,2.85
2019-02-08T01:50:43.129Z,2.90
2019-02-08T01:51:43.281Z,2.82
2019-02-08T01:52:43.132Z,2.83
2019-02-08T01:53:48.559Z,2.82
2019-02-08T01:54:44.205Z,2.83
2019-02-08T01:55:43.084Z,2.80
2019-02-08T01:56:43.075Z,2.80
2019-02-08T01:57:43.077Z,2.79
2019-02-08T01:58:44.209Z,2.83
2019-02-08T01:59:43.063Z,2.93
2019-02-08T02:00:43.071Z,2.90
2019-02-08T02:01:43.064Z,2.92
2019-02-08T02:02:43.066Z,2.98
2019-02-08T02:03:43.076Z,3.03
2019-02-08T02:04:43.611Z,3.00
2019-02-08T02:05:43.037Z,3.03
2019-02-08T02:06:43.216Z,3.08
2019-02-08T02:07:43.021Z,3.08
2019-02-08T02:08:43.195Z,2.98
2019-02-08T02:09:42.922Z,3.01
2019-02-08T02:10:43.651Z,2.95
2019-02-08T02:11:42.926Z,3.01
2019-02-08T02:12:42.897Z,3.01
2019-02-08T02:13:42.880Z,3.05
2019-02-08T02:14:42.885Z,2.95
2019-02-08T02:15:42.905Z,3.00
2019-02-08T02:16:43.291Z,2.93
2019-02-08T02:17:42.844Z,2.97
2019-02-08T02:18:43.166Z,2.90
2019-02-08T02:19:42.824Z,2.93
2019-02-08T02:20:42.803Z,2.86
2019-02-08T02:21:43.203Z,2.89
2019-02-08T02:22:42.779Z,2.86
2019-02-08T02:23:42.869Z,2.93
2019-02-08T02:24:42.764Z,2.83
2019-02-08T02:25:42.792Z,2.85
2019-02-08T02:26:42.738Z,2.92
2019-02-08T02:27:43.191Z,2.82
2019-02-08T02:28:42.735Z,2.83
2019-02-08T02:29:42.702Z,2.80
2019-02-08T02:30:42.706Z,2.79
2019-02-08T02:31:42.693Z,2.75
2019-02-08T02:32:42.686Z,2.68
2019-02-08T02:33:42.822Z,2.71
2019-02-08T02:34:42.661Z,2.68
2019-02-08T02:35:42.673Z,2.65
2019-02-08T02:36:42.635Z,2.71
2019-02-08T02:37:42.783Z,2.54
2019-02-08T02:38:42.652Z,2.53
2019-02-08T02:39:44.306Z,2.57
2019-02-08T02:40:42.628Z,2.57
2019-02-08T02:41:42.601Z,2.60
2019-02-08T02:42:42.623Z,2.61
2019-02-08T02:43:42.719Z,2.60
2019-02-08T02:44:42.547Z,2.50
2019-02-08T02:45:42.535Z,2.43
2019-02-08T02:46:42.562Z,2.47
2019-02-08T02:47:42.512Z,2.49
2019-02-08T02:48:42.525Z,2.49
2019-02-08T02:49:42.607Z,2.43
2019-02-08T02:50:42.511Z,2.44
2019-02-08T02:51:42.474Z,2.39
2019-02-08T02:52:42.454Z,2.42
2019-02-08T02:53:42.751Z,2.35
2019-02-08T02:54:42.457Z,2.32
2019-02-08T02:55:42.509Z,2.26
2019-02-08T02:56:42.424Z,2.29
2019-02-08T02:57:42.408Z,2.18
2019-02-08T02:58:42.387Z,2.28
2019-02-08T02:59:42.860Z,2.32
2019-02-08T03:00:42.826Z,2.36
2019-02-08T03:01:42.375Z,2.35
2019-02-08T03:02:42.672Z,2.38
2019-02-08T03:03:42.343Z,2.43
2019-02-08T03:04:42.332Z,2.39
2019-02-08T03:05:42.318Z,2.50
2019-02-08T03:06:42.303Z,2.42
2019-02-08T03:07:42.305Z,2.49
2019-02-08T03:08:42.585Z,2.53
2019-02-08T03:09:42.274Z,2.47
2019-02-08T03:10:42.287Z,2.53
2019-02-08T03:11:42.295Z,2.46
2019-02-08T03:12:42.518Z,2.46
2019-02-08T03:13:42.230Z,2.46
2019-02-08T03:14:42.631Z,2.38
2019-02-08T03:15:42.383Z,2.39
2019-02-08T03:16:42.204Z,2.46
2019-02-08T03:17:42.313Z,2.38
2019-02-08T03:18:42.178Z,2.50
2019-02-08T03:19:42.166Z,2.43
2019-02-08T03:20:42.158Z,2.47
2019-02-08T03:21:42.311Z,2.54
2019-02-08T03:22:42.282Z,2.64
2019-02-08T03:23:42.136Z,2.53
2019-02-08T03:24:42.107Z,2.53
2019-02-08T03:25:42.118Z,2.64
2019-02-08T03:26:42.092Z,2.64
2019-02-08T03:27:42.078Z,2.53
2019-02-08T03:28:42.265Z,2.54
2019-02-08T03:29:42.134Z,2.68
2019-02-08T03:30:42.045Z,2.62
2019-02-08T03:31:42.055Z,2.64
2019-02-08T03:32:42.378Z,2.64
2019-02-08T03:33:42.784Z,2.62
2019-02-08T03:34:42.023Z,2.67
2019-02-08T03:35:42.000Z,2.71
2019-02-08T03:36:41.995Z,2.67
2019-02-08T03:37:41.990Z,2.72
2019-02-08T03:38:41.975Z,2.79
2019-02-08T03:39:42.256Z,2.83
2019-02-08T03:40:41.953Z,2.79
2019-02-08T03:41:41.937Z,2.72
2019-02-08T03:42:41.920Z,2.79
2019-02-08T03:43:41.910Z,2.82
2019-02-08T03:44:41.915Z,2.87
2019-02-08T03:45:42.154Z,2.82
2019-02-08T03:46:41.969Z,2.74
2019-02-08T03:47:41.910Z,2.80
2019-02-08T03:48:41.917Z,2.80
2019-02-08T03:49:41.867Z,2.79
2019-02-08T03:50:43.222Z,2.83
2019-02-08T03:51:42.081Z,2.83
2019-02-08T03:52:41.826Z,2.79
2019-02-08T03:53:41.805Z,2.77
2019-02-08T03:54:41.812Z,2.85
2019-02-08T03:55:41.783Z,2.79
2019-02-08T03:56:41.763Z,2.83
2019-02-08T03:57:41.879Z,2.80
2019-02-08T03:58:41.886Z,2.65
2019-02-08T03:59:41.729Z,2.62
2019-02-08T04:00:41.730Z,2.67
2019-02-08T04:01:41.747Z,2.68
2019-02-08T04:02:41.712Z,2.85
2019-02-08T04:03:41.904Z,2.67
2019-02-08T04:04:41.692Z,2.75
2019-02-08T04:05:41.726Z,2.72
2019-02-08T04:06:41.743Z,2.71
2019-02-08T04:07:41.728Z,2.68
2019-02-08T04:08:41.632Z,2.79
2019-02-08T04:09:41.850Z,2.82
2019-02-08T04:10:41.809Z,2.83
2019-02-08T04:11:41.599Z,2.79
2019-02-08T04:12:41.622Z,2.82
2019-02-08T04:13:41.787Z,2.74
2019-02-08T04:14:41.579Z,2.68
2019-02-08T04:15:41.566Z,2.74
2019-02-08T04:16:41.579Z,2.71
2019-02-08T04:17:41.553Z,2.68
2019-02-08T04:18:42.568Z,2.77
2019-02-08T04:19:41.682Z,2.71
2019-02-08T04:20:41.529Z,2.67
2019-02-08T04:21:41.511Z,2.67
2019-02-08T04:22:41.489Z,2.67
2019-02-08T04:23:41.481Z,2.65
2019-02-08T04:24:42.152Z,2.65
2019-02-08T04:25:41.484Z,2.57
2019-02-08T04:26:41.448Z,2.65
2019-02-08T04:27:41.451Z,2.60
2019-02-08T04:28:41.415Z,2.61
2019-02-08T04:29:41.417Z,2.57
2019-02-08T04:30:41.633Z,2.62
2019-02-08T04:31:42.526Z,2.64
2019-02-08T04:32:41.908Z,2.65
2019-02-08T04:33:41.373Z,2.65
2019-02-08T04:35:05.021Z,2.69
2019-02-08T04:35:41.483Z,2.67
2019-02-08T04:36:41.335Z,2.69
2019-02-08T04:37:41.784Z,2.72
2019-02-08T04:38:41.322Z,2.65
2019-02-08T04:39:41.306Z,2.65
2019-02-08T04:40:43.012Z,2.72
2019-02-08T04:41:41.285Z,2.65
2019-02-08T04:42:41.275Z,2.64
2019-02-08T04:43:41.398Z,2.67
2019-02-08T04:44:41.247Z,2.85
2019-02-08T04:45:41.234Z,2.77
2019-02-08T04:46:41.262Z,2.83
2019-02-08T04:47:42.129Z,2.90
2019-02-08T04:48:41.323Z,2.86
2019-02-08T04:49:41.401Z,2.89
2019-02-08T04:50:41.344Z,2.82
2019-02-08T04:51:41.444Z,2.93
2019-02-08T04:52:41.257Z,2.83
2019-02-08T04:53:41.164Z,2.85
2019-02-08T04:54:41.328Z,2.97
2019-02-08T04:55:41.320Z,2.93
2019-02-08T04:56:41.130Z,2.87
2019-02-08T04:57:41.101Z,2.89
2019-02-08T04:58:41.098Z,2.98
2019-02-08T04:59:41.127Z,2.95
2019-02-08T05:00:41.102Z,2.90
2019-02-08T05:01:41.851Z,2.97
2019-02-08T05:02:41.075Z,2.93
2019-02-08T05:03:41.071Z,2.98
2019-02-08T05:04:41.093Z,2.87
2019-02-08T05:05:41.093Z,2.95
2019-02-08T05:06:41.096Z,2.97
2019-02-08T05:07:41.371Z,2.97
2019-02-08T05:08:41.103Z,3.00
2019-02-08T05:09:42.586Z,3.00
2019-02-08T05:10:41.064Z,3.01
2019-02-08T05:11:41.163Z,3.00
2019-02-08T05:12:40.946Z,3.03
2019-02-08T05:13:41.748Z,3.00
2019-02-08T05:14:40.926Z,3.08
2019-02-08T05:15:40.919Z,3.01
2019-02-08T05:16:40.934Z,3.04
2019-02-08T05:17:40.884Z,3.01
2019-02-08T05:18:41.335Z,3.07
2019-02-08T05:19:40.863Z,3.01
2019-02-08T05:20:40.858Z,2.97
2019-02-08T05:21:40.873Z,3.00
2019-02-08T05:22:40.847Z,3.04
2019-02-08T05:23:40.857Z,2.98
2019-02-08T05:24:45.878Z,3.00
2019-02-08T05:25:40.919Z,2.92
2019-02-08T05:26:40.851Z,2.90
2019-02-08T05:27:47.705Z,2.89
2019-02-08T05:28:41.407Z,2.97
2019-02-08T05:29:40.865Z,3.00
2019-02-08T05:30:40.780Z,2.97
2019-02-08T05:31:40.752Z,2.95
2019-02-08T05:32:40.758Z,2.95
2019-02-08T05:33:40.855Z,2.95
2019-02-08T05:34:40.708Z,2.93
2019-02-08T05:35:40.694Z,2.97
2019-02-08T05:36:40.689Z,2.93
2019-02-08T05:37:40.670Z,2.97
2019-02-08T05:38:40.689Z,3.01
2019-02-08T05:39:40.818Z,3.00
2019-02-08T05:40:40.647Z,2.98
2019-02-08T05:41:40.676Z,2.97
2019-02-08T05:42:40.630Z,3.00
2019-02-08T05:43:40.865Z,3.01
2019-02-08T05:44:40.623Z,3.03
2019-02-08T05:45:41.247Z,3.03
2019-02-08T05:46:40.579Z,3.00
2019-02-08T05:47:40.827Z,3.04
2019-02-08T05:48:40.569Z,2.97
2019-02-08T05:49:40.545Z,2.98
2019-02-08T05:50:40.558Z,3.03
2019-02-08T05:51:42.320Z,3.01
2019-02-08T05:52:40.511Z,3.01
2019-02-08T05:53:40.506Z,2.95
2019-02-08T05:54:40.491Z,2.95
2019-02-08T05:55:40.495Z,2.97
2019-02-08T05:56:40.486Z,3.04
2019-02-08T05:57:40.733Z,3.05
2019-02-08T05:58:40.769Z,3.08
2019-02-08T05:59:40.440Z,3.01
2019-02-08T06:00:41.411Z,3.10
2019-02-08T06:01:40.422Z,3.14
2019-02-08T06:02:40.411Z,3.07
2019-02-08T06:03:40.634Z,3.11
2019-02-08T06:04:40.793Z,3.10
2019-02-08T06:05:46.972Z,3.10
2019-02-08T06:06:40.378Z,3.11
2019-02-08T06:07:40.369Z,3.08
2019-02-08T06:08:40.342Z,3.07
2019-02-08T06:09:40.470Z,3.11
2019-02-08T06:10:40.312Z,3.13
2019-02-08T06:11:40.307Z,3.10
2019-02-08T06:12:40.305Z,3.16
2019-02-08T06:13:40.323Z,3.10
2019-02-08T06:14:40.332Z,3.11
2019-02-08T06:15:40.702Z,3.13
2019-02-08T06:16:40.249Z,3.19
2019-02-08T06:17:40.255Z,3.13
2019-02-08T06:18:40.231Z,3.14
2019-02-08T06:19:40.228Z,3.14
2019-02-08T06:20:40.211Z,3.11
2019-02-08T06:21:40.412Z,3.04
2019-02-08T06:22:40.183Z,3.07
2019-02-08T06:23:40.196Z,3.16
2019-02-08T06:24:40.175Z,3.10
2019-02-08T06:25:40.152Z,3.05
2019-02-08T06:26:40.146Z,3.07
2019-02-08T06:27:40.319Z,3.13
2019-02-08T06:28:40.125Z,3.14
2019-02-08T06:29:40.108Z,3.11
2019-02-08T06:30:40.128Z,3.10
2019-02-08T06:31:40.094Z,3.10
2019-02-08T06:32:40.226Z,3.14
2019-02-08T06:33:40.394Z,3.13
2019-02-08T06:34:41.294Z,3.14
2019-02-08T06:35:40.047Z,3.21
2019-02-08T06:36:40.387Z,3.19
2019-02-08T06:37:44.563Z,3.14
2019-02-08T06:38:40.016Z,3.19
2019-02-08T06:39:40.006Z,3.16
2019-02-08T06:40:40.015Z,3.19
2019-02-08T06:41:41.854Z,3.10
2019-02-08T06:42:40.143Z,3.18
2019-02-08T06:43:39.958Z,3.13
2019-02-08T06:44:39.952Z,3.14
2019-02-08T06:45:39.936Z,3.14
2019-02-08T06:46:40.233Z,3.14
2019-02-08T06:47:39.975Z,3.13
2019-02-08T06:48:39.906Z,3.16
2019-02-08T06:49:39.938Z,3.16
2019-02-08T06:50:39.901Z,3.19
2019-02-08T06:51:39.908Z,3.18
2019-02-08T06:52:40.181Z,3.16
2019-02-08T06:53:39.871Z,3.10
2019-02-08T06:54:39.853Z,3.18
2019-02-08T06:55:39.830Z,3.19
2019-02-08T06:56:39.829Z,3.18
2019-02-08T06:57:39.806Z,3.11
2019-02-08T06:58:39.966Z,3.21
2019-02-08T06:59:39.784Z,3.08
2019-02-08T07:00:39.806Z,3.21
2019-02-08T07:01:39.770Z,3.28
2019-02-08T07:02:40.228Z,3.19
2019-02-08T07:03:39.905Z,3.21
2019-02-08T07:04:39.801Z,3.18
2019-02-08T07:05:39.718Z,3.21
2019-02-08T07:06:39.711Z,3.16
2019-02-08T07:07:39.705Z,3.05
2019-02-08T07:08:40.162Z,3.08
2019-02-08T07:09:39.679Z,3.21
2019-02-08T07:10:41.409Z,3.28
2019-02-08T07:11:39.792Z,3.26
2019-02-08T07:12:39.655Z,3.25
2019-02-08T07:13:39.660Z,3.25
2019-02-08T07:14:39.787Z,3.31
2019-02-08T07:15:39.618Z,3.21
2019-02-08T07:16:39.607Z,3.23
2019-02-08T07:17:39.676Z,3.29
2019-02-08T07:18:39.591Z,3.31
2019-02-08T07:19:39.814Z,3.32
2019-02-08T07:20:39.577Z,3.31
2019-02-08T07:21:39.645Z,3.26
2019-02-08T07:22:39.534Z,3.32
2019-02-08T07:23:39.540Z,3.29
2019-02-08T07:24:39.523Z,3.25
2019-02-08T07:25:39.905Z,3.29
2019-02-08T07:26:39.522Z,3.34
2019-02-08T07:27:39.540Z,3.34
2019-02-08T07:28:39.480Z,3.32
2019-02-08T07:29:39.456Z,3.28
2019-02-08T07:30:39.462Z,3.31
2019-02-08T07:31:39.705Z,3.36
2019-02-08T07:32:39.710Z,3.32
2019-02-08T07:33:39.421Z,3.31
2019-02-08T07:34:39.409Z,3.31
2019-02-08T07:35:39.409Z,3.37
2019-02-08T07:36:39.405Z,3.44
2019-02-08T07:37:39.597Z,3.45
2019-02-08T07:38:39.760Z,3.47
2019-02-08T07:39:39.419Z,3.47
2019-02-08T07:40:39.354Z,3.47
2019-02-08T07:41:39.367Z,3.44
2019-02-08T07:42:39.337Z,3.48
2019-02-08T07:43:39.329Z,3.45
2019-02-08T07:44:39.526Z,3.50
2019-02-08T07:45:39.289Z,3.44
2019-02-08T07:46:39.284Z,3.44
2019-02-08T07:47:39.276Z,3.53
2019-02-08T07:48:39.260Z,3.59
2019-02-08T07:49:39.280Z,3.59
2019-02-08T07:50:39.410Z,3.53
2019-02-08T07:51:39.326Z,3.60
2019-02-08T07:52:40.556Z,3.62
2019-02-08T07:53:39.403Z,3.68
2019-02-08T07:54:39.205Z,3.66
2019-02-08T07:55:39.410Z,3.74
2019-02-08T07:56:39.330Z,3.77
2019-02-08T07:57:39.382Z,3.74
2019-02-08T07:58:39.187Z,3.86
2019-02-08T07:59:39.185Z,3.83
2019-02-08T08:00:39.184Z,3.83
2019-02-08T08:01:39.508Z,3.95
2019-02-08T08:02:39.206Z,3.95
2019-02-08T08:03:39.190Z,4.13
2019-02-08T08:04:39.200Z,4.37
2019-02-08T08:05:39.183Z,4.49
2019-02-08T08:06:39.199Z,4.63
2019-02-08T08:07:39.435Z,4.63
2019-02-08T08:08:39.197Z,4.87
2019-02-08T08:09:39.207Z,5.00
2019-02-08T08:10:39.247Z,5.25
2019-02-08T08:11:39.494Z,5.44
2019-02-08T08:12:39.085Z,5.39
2019-02-08T08:13:39.146Z,5.41
2019-02-08T08:14:39.279Z,5.44
2019-02-08T08:15:39.211Z,5.61
2019-02-08T08:16:38.981Z,5.46
2019-02-08T08:17:39.368Z,5.44
2019-02-08T08:18:38.987Z,5.48
2019-02-08T08:19:38.923Z,5.30
2019-02-08T08:20:38.908Z,5.26
2019-02-08T08:21:38.907Z,5.29
2019-02-08T08:22:38.889Z,5.39
2019-02-08T08:23:39.345Z,5.62
2019-02-08T08:24:38.874Z,5.89
2019-02-08T08:25:39.321Z,6.04
2019-02-08T08:26:38.877Z,6.07
2019-02-08T08:27:38.943Z,6.01
2019-02-08T08:28:38.969Z,6.01
2019-02-08T08:29:38.837Z,6.07
2019-02-08T08:30:38.802Z,6.14
2019-02-08T08:31:38.789Z,6.22
2019-02-08T08:32:38.782Z,6.20
2019-02-08T08:33:38.947Z,6.19
2019-02-08T08:34:39.857Z,6.20
2019-02-08T08:35:40.300Z,6.35
2019-02-08T08:36:38.737Z,6.54
2019-02-08T08:37:38.725Z,6.72
2019-02-08T08:38:38.726Z,6.72
2019-02-08T08:39:38.720Z,6.93
2019-02-08T08:40:38.815Z,7.15
2019-02-08T08:41:38.681Z,7.21
2019-02-08T08:42:40.518Z,7.13
2019-02-08T08:43:38.658Z,6.92
2019-02-08T08:44:38.802Z,6.81
2019-02-08T08:45:38.649Z,6.63
2019-02-08T08:46:38.974Z,6.64
2019-02-08T08:47:38.778Z,6.63
2019-02-08T08:48:38.602Z,6.52
2019-02-08T08:49:38.600Z,6.42
2019-02-08T08:50:38.588Z,6.84
2019-02-08T08:51:38.570Z,7.91
2019-02-08T08:52:38.574Z,8.91
2019-02-08T08:53:38.667Z,9.87
2019-02-08T08:54:38.545Z,10.01
2019-02-08T08:55:42.278Z,11.69
2019-02-08T08:56:38.558Z,12.46
2019-02-08T08:57:38.531Z,13.01
2019-02-08T08:58:38.667Z,13.93
2019-02-08T08:59:38.490Z,14.77
2019-02-08T09:00:38.473Z,14.65
2019-02-08T09:01:38.643Z,14.66
2019-02-08T09:02:38.465Z,15.07
2019-02-08T09:03:39.508Z,15.70
2019-02-08T09:04:38.727Z,15.79
2019-02-08T09:05:38.424Z,15.94
2019-02-08T09:06:44.992Z,16.20
2019-02-08T09:07:38.402Z,16.54
2019-02-08T09:08:38.390Z,16.12
2019-02-08T09:09:38.385Z,15.70
2019-02-08T09:10:38.687Z,15.40
2019-02-08T09:11:38.371Z,15.24
2019-02-08T09:12:38.348Z,15.79
2019-02-08T09:13:38.342Z,16.96
2019-02-08T09:14:38.328Z,17.85
2019-02-08T09:15:38.320Z,17.41
2019-02-08T09:16:38.665Z,15.31
2019-02-08T09:17:38.293Z,13.54
2019-02-08T09:18:38.391Z,14.60
2019-02-08T09:19:38.272Z,16.31
2019-02-08T09:20:39.103Z,16.90
2019-02-08T09:21:39.091Z,16.41
2019-02-08T09:22:38.563Z,16.33
2019-02-08T09:23:38.224Z,16.04
2019-02-08T09:24:38.212Z,16.38
2019-02-08T09:25:38.234Z,15.62
2019-02-08T09:26:38.200Z,16.12
2019-02-08T09:27:38.175Z,16.49
2019-02-08T09:28:38.322Z,16.75
2019-02-08T09:29:38.168Z,17.41
2019-02-08T09:30:38.152Z,17.68
2019-02-08T09:31:38.140Z,17.79
2019-02-08T09:32:38.300Z,18.40
2019-02-08T09:33:38.223Z,18.19
2019-02-08T09:34:38.094Z,17.63
2019-02-08T09:35:38.130Z,17.19
2019-02-08T09:36:38.084Z,18.23
2019-02-08T09:37:38.100Z,18.60
2019-02-08T09:38:38.227Z,18.99
2019-02-08T09:39:38.053Z,18.83
2019-02-08T09:40:38.036Z,17.94
2019-02-08T09:41:38.097Z,17.14
2019-02-08T09:42:38.014Z,17.36
2019-02-08T09:43:38.014Z,18.10
2019-02-08T09:44:38.293Z,18.22
2019-02-08T09:45:37.982Z,17.52
2019-02-08T09:46:37.969Z,17.65
2019-02-08T09:47:37.953Z,16.64
2019-02-08T09:48:38.269Z,16.68
2019-02-08T09:49:38.211Z,16.94
2019-02-08T09:50:38.045Z,16.60
2019-02-08T09:51:37.912Z,16.42
2019-02-08T09:52:37.899Z,16.09
2019-02-08T09:53:39.240Z,16.05
2019-02-08T09:54:37.884Z,15.95
2019-02-08T09:55:38.028Z,16.66
2019-02-08T09:56:37.862Z,17.12
2019-02-08T09:57:37.847Z,17.70
2019-02-08T09:58:37.830Z,18.20
2019-02-08T09:59:37.823Z,18.43
2019-02-08T10:00:37.996Z,18.29
2019-02-08T10:01:37.813Z,17.76
2019-02-08T10:02:37.807Z,17.94
2019-02-08T10:03:39.840Z,17.64
2019-02-08T10:04:37.773Z,16.84
2019-02-08T10:05:37.854Z,17.06
2019-02-08T10:06:37.940Z,16.64
2019-02-08T10:07:37.881Z,17.56
2019-02-08T10:08:37.737Z,17.86
2019-02-08T10:09:37.736Z,18.28
2019-02-08T10:10:37.704Z,18.59
2019-02-08T10:11:39.728Z,18.65
2019-02-08T10:12:37.862Z,19.62
2019-02-08T10:13:37.680Z,19.71
2019-02-08T10:14:38.155Z,18.20
2019-02-08T10:15:37.644Z,18.18
2019-02-08T10:16:37.725Z,17.76
2019-02-08T10:17:37.942Z,17.83
2019-02-08T10:18:37.800Z,18.40
2019-02-08T10:19:38.279Z,18.81
2019-02-08T10:20:38.219Z,18.81
2019-02-08T10:21:37.804Z,18.55
2019-02-08T10:22:37.643Z,18.37
2019-02-08T10:23:37.787Z,17.63
2019-02-08T10:24:37.684Z,16.97
2019-02-08T10:25:37.565Z,16.21
2019-02-08T10:26:37.581Z,16.01
2019-02-08T10:27:37.509Z,16.38
2019-02-08T10:28:37.943Z,16.49
2019-02-08T10:29:37.498Z,17.52
2019-02-08T10:30:37.517Z,17.83
2019-02-08T10:31:37.513Z,16.87
2019-02-08T10:32:37.472Z,15.95
2019-02-08T10:33:37.447Z,16.43
2019-02-08T10:34:37.614Z,16.58
2019-02-08T10:35:38.021Z,16.81
2019-02-08T10:36:37.423Z,15.49
2019-02-08T10:37:37.429Z,15.07
2019-02-08T10:38:37.431Z,14.89
2019-02-08T10:39:37.482Z,14.96
2019-02-08T10:40:37.643Z,14.54
2019-02-08T10:41:37.724Z,14.00
2019-02-08T10:42:37.391Z,14.58
2019-02-08T10:43:39.023Z,14.51
2019-02-08T10:44:38.126Z,14.79
2019-02-08T10:45:38.106Z,14.60
2019-02-08T10:46:37.310Z,14.11
2019-02-08T10:47:37.457Z,14.29
2019-02-08T10:48:37.292Z,14.04
2019-02-08T10:49:38.026Z,14.00
2019-02-08T10:50:37.312Z,13.99
2019-02-08T10:51:37.515Z,13.53
2019-02-08T10:52:37.830Z,13.25
2019-02-08T10:53:37.413Z,12.85
2019-02-08T10:54:37.376Z,13.31
2019-02-08T10:55:37.214Z,13.74
2019-02-08T10:56:37.408Z,15.14
2019-02-08T10:57:37.195Z,16.31
2019-02-08T10:58:37.392Z,16.57
2019-02-08T10:59:37.400Z,16.00
2019-02-08T11:00:37.720Z,15.95
2019-02-08T11:01:42.007Z,14.30
2019-02-08T11:02:38.145Z,13.28
2019-02-08T11:03:37.139Z,12.58
2019-02-08T11:04:37.689Z,11.77
2019-02-08T11:05:37.164Z,11.69
2019-02-08T11:06:37.399Z,11.47
2019-02-08T11:07:37.136Z,11.80
2019-02-08T11:08:37.572Z,11.73
2019-02-08T11:09:37.160Z,11.23
2019-02-08T11:10:37.186Z,10.87
2019-02-08T11:11:37.339Z,10.57
2019-02-08T11:12:37.538Z,10.48
2019-02-08T11:13:37.297Z,10.82
2019-02-08T11:14:37.491Z,11.15
2019-02-08T11:15:37.266Z,11.36
2019-02-08T11:16:37.005Z,11.25
2019-02-08T11:17:36.999Z,10.72
2019-02-08T11:18:37.455Z,10.20
2019-02-08T11:19:36.954Z,10.01
2019-02-08T11:20:36.935Z,10.12
2019-02-08T11:21:36.944Z,9.98
2019-02-08T11:22:36.963Z,10.05
2019-02-08T11:23:36.945Z,10.28
2019-02-08T11:24:37.379Z,10.13
2019-02-08T11:25:36.880Z,10.49
2019-02-08T11:26:36.874Z,10.67
2019-02-08T11:27:36.872Z,10.68
2019-02-08T11:28:36.905Z,10.56
2019-02-08T11:29:36.847Z,10.59
2019-02-08T11:30:37.464Z,10.37
2019-02-08T11:31:36.827Z,10.56
2019-02-08T11:32:43.295Z,10.68
2019-02-08T11:33:39.620Z,10.97
2019-02-08T11:34:36.818Z,11.40
2019-02-08T11:35:36.766Z,12.09
2019-02-08T11:36:36.945Z,12.73
2019-02-08T11:37:36.746Z,12.82
2019-02-08T11:38:36.744Z,12.94
2019-02-08T11:39:36.732Z,12.78
2019-02-08T11:40:36.734Z,12.42
2019-02-08T11:41:36.708Z,12.49
2019-02-08T11:42:36.836Z,13.96
2019-02-08T11:43:36.689Z,13.62
2019-02-08T11:44:36.684Z,13.04
2019-02-08T11:45:36.745Z,12.94
2019-02-08T11:46:36.657Z,13.11
2019-02-08T11:47:36.630Z,13.46
2019-02-08T11:48:36.929Z,13.72
2019-02-08T11:49:36.626Z,14.10
2019-02-08T11:50:36.617Z,13.54
2019-02-08T11:51:36.593Z,13.30
2019-02-08T11:52:36.586Z,13.60
2019-02-08T11:53:36.702Z,14.15
2019-02-08T11:54:38.117Z,14.48
2019-02-08T11:55:36.695Z,14.45
2019-02-08T11:56:36.846Z,15.25
2019-02-08T11:57:36.669Z,15.00
2019-02-08T11:58:36.808Z,15.83
2019-02-08T11:59:37.704Z,15.47
2019-02-08T12:00:36.616Z,14.54
2019-02-08T12:01:36.736Z,14.58
2019-02-08T12:02:40.515Z,14.91
2019-02-08T12:03:36.464Z,14.63
2019-02-08T12:04:36.471Z,14.12
2019-02-08T12:05:36.869Z,13.74
2019-02-08T12:06:36.431Z,13.44
2019-02-08T12:07:36.416Z,13.09
2019-02-08T12:08:36.408Z,12.62
2019-02-08T12:09:36.417Z,12.09
2019-02-08T12:10:36.576Z,11.73
2019-02-08T12:11:36.684Z,11.62
2019-02-08T12:12:36.373Z,11.55
2019-02-08T12:13:36.356Z,11.65
2019-02-08T12:14:36.514Z,11.66
2019-02-08T12:15:36.447Z,11.35
2019-02-08T12:16:36.506Z,11.12
2019-02-08T12:17:36.539Z,10.84
2019-02-08T12:18:36.298Z,10.59
2019-02-08T12:19:36.465Z,10.49
2019-02-08T12:20:36.287Z,10.37
2019-02-08T12:21:36.300Z,10.25
2019-02-08T12:22:36.433Z,10.30
2019-02-08T12:23:36.249Z,10.33
2019-02-08T12:24:36.233Z,10.53
2019-02-08T12:25:36.213Z,11.12
2019-02-08T12:26:37.969Z,11.66
2019-02-08T12:27:36.188Z,11.78
2019-02-08T12:28:36.365Z,11.66
2019-02-08T12:29:36.167Z,11.59
2019-02-08T12:30:36.168Z,11.30
2019-02-08T12:31:36.162Z,11.08
2019-02-08T12:32:36.167Z,10.86
2019-02-08T12:33:36.132Z,10.57
2019-02-08T12:34:36.361Z,10.34
2019-02-08T12:35:36.168Z,10.38
2019-02-08T12:36:36.354Z,10.51
2019-02-08T12:37:36.096Z,10.33
2019-02-08T12:38:36.392Z,10.13
2019-02-08T12:39:36.059Z,10.13
2019-02-08T12:40:36.045Z,9.86
2019-02-08T12:41:36.048Z,9.72
2019-02-08T12:42:36.496Z,9.72
2019-02-08T12:43:36.046Z,9.68
2019-02-08T12:44:37.757Z,9.74
2019-02-08T12:45:36.029Z,9.68
2019-02-08T12:46:35.985Z,9.69
2019-02-08T12:47:36.173Z,9.72
2019-02-08T12:48:36.524Z,9.76
2019-02-08T12:49:35.961Z,10.41
2019-02-08T12:50:35.946Z,10.38
2019-02-08T12:51:36.205Z,10.64
2019-02-08T12:52:35.915Z,10.61
2019-02-08T12:53:36.329Z,10.30
2019-02-08T12:54:35.894Z,10.41
2019-02-08T12:55:35.937Z,10.40
2019-02-08T12:56:35.917Z,10.20
2019-02-08T12:57:35.875Z,10.25
2019-02-08T12:58:35.882Z,10.16
2019-02-08T12:59:37.233Z,10.12
2019-02-08T13:00:36.027Z,10.20
2019-02-08T13:01:37.877Z,10.12
2019-02-08T13:02:35.808Z,10.22
2019-02-08T13:03:35.790Z,10.10
2019-02-08T13:04:35.857Z,10.05
2019-02-08T13:05:36.431Z,9.99
2019-02-08T13:06:35.901Z,9.94
2019-02-08T13:07:35.776Z,10.01
2019-02-08T13:08:35.842Z,10.12
2019-02-08T13:09:35.735Z,10.16
2019-02-08T13:10:35.723Z,10.09